FW2280 Jersey City NJ US current weather conditions

sailwx.info

Wind from 146 at 3 knots gusting 7

Air temperature 25.0° C
Dewpoint 19.1° C

Last reported at 2020-Aug-07 18:04 UTC.
Time now 2020-Aug-07 18:49 UTC

Location: N 40°42' W 074°02'.
View on Google Maps.

See reports from other nearby stations

  
Tides and Currents Weather Stations Pressure Air Temp Water Temp Dewpoint Dewpoint Depression Visibility Wind Speed Wind Dir Waves Ship Positions
date/time (UTC)wind fromknots sea level pressurealtimeterstation pressurevisibilityair tempwater tempwave heightnotes
2020-Aug-07 18:04 146 3 gusting 7 25.0
2020-Aug-07 17:53 075 0 gusting 4 25.0
2020-Aug-07 17:43 089 4 gusting 10 25.0
2020-Aug-07 17:34 114 1 gusting 9 25.0
2020-Aug-07 17:18 086 2 gusting 12 24.4
2020-Aug-07 17:08 061 7 gusting 12 24.4
2020-Aug-07 16:58 069 8 gusting 12 24.4
2020-Aug-07 16:48 068 9 gusting 14 23.9
2020-Aug-07 16:39 100 7 gusting 15 23.9
2020-Aug-07 16:28 083 11 gusting 16 23.9
2020-Aug-07 16:19 075 8 gusting 18 23.9
2020-Aug-07 16:08 061 13 gusting 20 23.3
2020-Aug-07 15:59 065 13 gusting 20 23.3
2020-Aug-07 15:38 064 9 gusting 15 23.3
2020-Aug-07 15:33 088 11 gusting 18 23.3
2020-Aug-07 15:24 070 12 gusting 17 23.3
2020-Aug-07 15:18 067 13 gusting 15 22.8
2020-Aug-07 15:08 071 10 gusting 17 22.8
2020-Aug-07 14:58 077 11 gusting 14 22.8
2020-Aug-07 14:48 061 12 gusting 16 22.2
2020-Aug-07 14:38 056 8 gusting 16 22.2
2020-Aug-07 14:29 060 8 gusting 13 22.2
2020-Aug-07 14:18 063 8 gusting 15 22.2
2020-Aug-07 14:09
2020-Aug-07 14:03
2020-Aug-07 13:53 044 6 gusting 12 21.7
2020-Aug-07 13:43 080 5 gusting 12 21.7
2020-Aug-07 13:34 057 6 gusting 15 21.1
2020-Aug-07 13:23 056 6 gusting 11 21.1
2020-Aug-07 13:13 070 5 gusting 10 21.1
2020-Aug-07 13:03 121 5 gusting 9 21.7
2020-Aug-07 12:53 108 9 gusting 15 22.2
2020-Aug-07 12:43 115 4 gusting 11 22.2
2020-Aug-07 12:33 065 7 gusting 10 21.7
2020-Aug-07 12:28 063 5 gusting 6 21.7
2020-Aug-07 12:23 037 1 gusting 8 21.7
2020-Aug-07 12:13 049 9 gusting 13 21.7
2020-Aug-07 12:03 023 4 gusting 9 21.7
2020-Aug-07 11:53 065 8 gusting 11 22.2
2020-Aug-07 11:38 059 9 gusting 12 21.7
2020-Aug-07 11:29 067 5 gusting 12 21.7
2020-Aug-07 11:23 058 7 gusting 12 21.7
2020-Aug-07 11:13 062 12 gusting 16 21.7
2020-Aug-07 11:03 061 11 gusting 13 21.1
2020-Aug-07 10:53 059 10 gusting 14 20.6
2020-Aug-07 10:44 056 12 gusting 15 20.6
2020-Aug-07 10:33 040 5 gusting 7 20.6
2020-Aug-07 10:28 052 5 gusting 6 21.1
2020-Aug-07 10:18 332 3 gusting 5 21.7
2020-Aug-07 10:08 101 5 gusting 9 22.2
2020-Aug-07 09:58 138 2 gusting 7 22.2
2020-Aug-07 09:48 067 7 gusting 13 22.2
2020-Aug-07 09:43 053 11 gusting 13 22.2
2020-Aug-07 09:33 052 6 gusting 8 22.2
2020-Aug-07 09:28 058 2 gusting 5 21.7
2020-Aug-07 09:18 064 22.2
2020-Aug-07 09:08 252 1 gusting 5 22.2
2020-Aug-07 08:58 248 0 gusting 3 22.8
2020-Aug-07 08:43 233 1 gusting 3 23.3
2020-Aug-07 08:33 165 3 gusting 6 23.3
2020-Aug-07 08:23 149 4 gusting 6 23.3
2020-Aug-07 08:13 146 3 gusting 6 23.3
2020-Aug-07 07:58 126 5 gusting 6 23.3
2020-Aug-07 07:48 122 6 gusting 6 23.3
2020-Aug-07 07:38 132 4 gusting 6 23.3
2020-Aug-07 07:29 135 3 gusting 5 23.3
2020-Aug-07 07:23 153 4 gusting 6 23.3
2020-Aug-07 07:13 159 4 gusting 5 23.3
2020-Aug-07 07:03 165 4 gusting 6 23.3
2020-Aug-07 06:53 147 5 gusting 6 23.3
2020-Aug-07 06:43 156 3 gusting 5 23.3
2020-Aug-07 06:33 150 4 gusting 6 23.3
2020-Aug-07 06:23 162 4 gusting 6 23.3
2020-Aug-07 06:14 183 5 gusting 6 23.9
2020-Aug-07 06:03 160 4 gusting 5 23.9
2020-Aug-07 05:53 202 2 gusting 4 23.9
2020-Aug-07 05:43 139 2 gusting 4 23.9
2020-Aug-07 05:34 128 3 gusting 6 23.9
2020-Aug-07 05:23 159 2 gusting 5 23.9
2020-Aug-07 05:13 169 2 gusting 4 23.9
2020-Aug-07 05:03 151 2 gusting 3 23.9
2020-Aug-07 04:58 147 2 gusting 3 23.9
2020-Aug-07 04:48 146 2 gusting 3 23.9
2020-Aug-07 04:38 146 1 gusting 2 23.9
2020-Aug-07 04:33 129 1 gusting 3 23.9
2020-Aug-07 04:28 195 1 gusting 3 23.9
2020-Aug-07 04:18 178 2 gusting 6 23.9
2020-Aug-07 04:08 212 4 gusting 6 23.9
2020-Aug-07 03:59 216 5 gusting 6 23.9
2020-Aug-07 03:49 204 5 gusting 8 23.9
2020-Aug-07 03:43 214 6 gusting 8 23.9
2020-Aug-07 03:33 223 6 gusting 8 23.9
2020-Aug-07 03:28 227 6 gusting 8 23.9
2020-Aug-07 03:18 224 6 gusting 9 23.9
2020-Aug-07 03:08 218 5 gusting 7 24.4
2020-Aug-07 02:58 203 4 gusting 5 24.4
2020-Aug-07 02:49 198 3 gusting 6 24.4
2020-Aug-07 02:38 201 4 gusting 6 24.4
2020-Aug-07 02:28 212 2 gusting 3 24.4
2020-Aug-07 02:19 218 0 gusting 2 23.9
2020-Aug-07 02:08 165 0 gusting 2 23.9
2020-Aug-07 01:58 219 1 gusting 2 23.9
2020-Aug-07 01:48 174 1 gusting 2 23.9
2020-Aug-07 01:38 158 2 gusting 3 23.9
2020-Aug-07 01:33 185 2 gusting 3 23.9
2020-Aug-07 01:23 170 1 gusting 2 23.9
2020-Aug-07 01:13 197 1 gusting 3 23.9
2020-Aug-07 01:03 225 2 gusting 4 23.9
2020-Aug-07 00:54 243 1 gusting 4 23.9
2020-Aug-07 00:44 252 1 gusting 6 24.4
2020-Aug-07 00:38 245 3 gusting 6 24.4
2020-Aug-07 00:28 243 3 gusting 5 24.4
2020-Aug-07 00:18 266 2 gusting 5 24.4
2020-Aug-07 00:08 243 4 gusting 6 24.4
2020-Aug-06 23:58 235 4 gusting 8 24.4
2020-Aug-06 23:48 234 6 gusting 8 24.4
2020-Aug-06 23:39 215 5 gusting 7 24.4
2020-Aug-06 23:29 232 6 gusting 8 24.4
2020-Aug-06 23:23 243 6 gusting 8 24.4
2020-Aug-06 23:13 243 6 gusting 10 24.4
2020-Aug-06 23:08 234 6 gusting 10 24.4
2020-Aug-06 22:54 240 6 gusting 9 24.4
2020-Aug-06 22:48 222 7 gusting 9 24.4
2020-Aug-06 22:38 236 7 gusting 9 24.4
2020-Aug-06 22:29 226 7 gusting 10 24.4
2020-Aug-06 22:24 191 7 gusting 10 24.4
2020-Aug-06 22:13 208 7 gusting 11 24.4
2020-Aug-06 22:03 224 7 gusting 12 24.4
2020-Aug-06 21:53 228 10 gusting 13 23.9
2020-Aug-06 21:43 234 11 gusting 13 23.9
2020-Aug-06 21:33 230 13 gusting 16 23.9
2020-Aug-06 21:23 227 14 gusting 16 23.9
2020-Aug-06 21:13 239 13 gusting 17 23.9
2020-Aug-06 21:04 235 13 gusting 15 24.4
2020-Aug-06 20:54 240 12 gusting 15 24.4
2020-Aug-06 20:38 247 13 gusting 15 23.9
2020-Aug-06 20:29 242 12 gusting 14 23.9
2020-Aug-06 20:23 245 11 gusting 15 23.9
2020-Aug-06 20:13 245 11 gusting 13 23.9
2020-Aug-06 20:04 244 12 gusting 14 23.3
2020-Aug-06 19:53 241 12 gusting 14 23.3
2020-Aug-06 19:43 238 13 gusting 14 23.3
2020-Aug-06 19:33 260 10 gusting 14 23.9
2020-Aug-06 19:28 247 11 gusting 14 23.9
2020-Aug-06 19:13 231 10 gusting 14 23.9
2020-Aug-06 19:03 244 10 gusting 14 23.9
2020-Aug-06 18:54 231 11 gusting 14 23.9
2020-Aug-06 18:43 240 11 gusting 16 23.9
2020-Aug-06 18:38 250 13 gusting 16 23.3
2020-Aug-06 18:28 235 13 gusting 16 23.9
2020-Aug-06 18:08 217 6 gusting 8 25.6
2020-Aug-06 17:59 266 2 gusting 7 25.0
2020-Aug-06 17:53 277 5 gusting 8 25.0
2020-Aug-06 17:44 251 6 gusting 8 25.0
2020-Aug-06 17:38 250 6 gusting 8 24.4
2020-Aug-06 17:28 224 2 gusting 5 25.0
2020-Aug-06 17:18 251 3 gusting 6 25.0
2020-Aug-06 17:09 244 3 gusting 4 25.0
2020-Aug-06 16:59 227 0 gusting 1 25.0
2020-Aug-06 16:53 259 25.0
2020-Aug-06 16:43 202 0 gusting 4 25.0
2020-Aug-06 16:33 137 25.0
2020-Aug-06 16:23 139 0 gusting 4 25.0
2020-Aug-06 16:13 115 1 gusting 4 24.4
2020-Aug-06 16:04 127 1 gusting 4 24.4
2020-Aug-06 15:58 122 3 gusting 5 23.9
2020-Aug-06 15:43 107 1 gusting 4 23.9
2020-Aug-06 15:34 108 3 gusting 6 23.9
2020-Aug-06 15:24 068 1 gusting 4 23.9
2020-Aug-06 15:15 064 5 gusting 7 23.3
2020-Aug-06 15:08 060 6 gusting 7 23.3
2020-Aug-06 14:58 053 5 gusting 6 23.3
2020-Aug-06 14:48 119 6 gusting 11 23.3
2020-Aug-06 14:43 113 9 gusting 11 23.3
2020-Aug-06 14:34 122 7 gusting 11 23.3
2020-Aug-06 14:29 151 7 gusting 9 23.3
2020-Aug-06 14:19 146 1 gusting 8 23.9
2020-Aug-06 14:09 044 6 gusting 10 23.9
2020-Aug-06 13:59 042 6 gusting 10 23.9
2020-Aug-06 13:53 046 7 gusting 10 23.9
2020-Aug-06 13:44 354 1 gusting 6 23.9
2020-Aug-06 13:33 037 2 gusting 6 23.9
2020-Aug-06 13:28 049 3 gusting 6 24.4
2020-Aug-06 13:19 052 3 gusting 6 24.4
2020-Aug-06 13:08 054 5 gusting 7 24.4
2020-Aug-06 12:58 049 7 gusting 9 23.9
2020-Aug-06 12:48 053 5 gusting 8 23.9
2020-Aug-06 12:38 053 6 gusting 7 23.9
2020-Aug-06 12:29 051 5 gusting 8 23.9
2020-Aug-06 12:24 053 5 gusting 8 23.9
2020-Aug-06 12:13 059 5 gusting 9 23.9
2020-Aug-06 12:03 049 6 gusting 9 23.9
2020-Aug-06 11:53 052 4 gusting 6 23.9
2020-Aug-06 11:43 034 4 gusting 9 23.3
2020-Aug-06 11:34 046 8 gusting 12 23.3
2020-Aug-06 11:23 061 8 gusting 10 23.3
2020-Aug-06 11:13 054 3 gusting 10 23.9
2020-Aug-06 11:03 056 4 gusting 9 23.9
2020-Aug-06 10:53 053 6 gusting 8 23.9
2020-Aug-06 10:43 034 4 gusting 7 23.3
2020-Aug-06 10:38 012 5 gusting 8 23.3
2020-Aug-06 10:28 002 3 gusting 6 22.8
2020-Aug-06 10:18 356 4 gusting 7 22.8
2020-Aug-06 10:13 003 5 gusting 7 22.8
2020-Aug-06 10:03 338 5 gusting 6 22.8
2020-Aug-06 09:53 357 0 gusting 2 23.3
2020-Aug-06 09:45 023 1 gusting 4 23.3
2020-Aug-06 09:33 037 2 gusting 3 23.3
2020-Aug-06 09:23 021 1 gusting 4 22.8
2020-Aug-06 09:13 001 2 gusting 4 22.8
2020-Aug-06 09:03 334 2 gusting 4 22.8
2020-Aug-06 08:53 286 2 gusting 4 23.3
2020-Aug-06 08:43 276 4 gusting 6 23.9
2020-Aug-06 08:33 282 4 gusting 6 23.9
2020-Aug-06 08:28 265 4 gusting 9 23.9
2020-Aug-06 08:18 293 0 gusting 2 23.9
2020-Aug-06 08:08 006 0 gusting 2 23.9
2020-Aug-06 07:59 345 2 gusting 3 23.9
2020-Aug-06 07:49 319 0 gusting 1 23.3
2020-Aug-06 07:38 295 23.3
2020-Aug-06 07:28 305 0 gusting 1 23.3
2020-Aug-06 07:18 311 23.9
2020-Aug-06 07:08 296 23.9
2020-Aug-06 06:59 296 23.9
2020-Aug-06 06:48 297 0 gusting 1 23.9
2020-Aug-06 06:38 294 23.3
2020-Aug-06 06:28 294 23.3
2020-Aug-06 06:18 294 23.3
2020-Aug-06 06:09 294 23.9
2020-Aug-06 06:03 294 23.9
2020-Aug-06 05:53 295 23.9
2020-Aug-06 05:43 281 23.9
2020-Aug-06 05:34 281 23.9
2020-Aug-06 05:23 281 24.4
2020-Aug-06 05:13 267 24.4
2020-Aug-06 05:04 286 24.4
2020-Aug-06 04:54 286 0 gusting 2 24.4
2020-Aug-06 04:48 285 1 gusting 2 24.4
2020-Aug-06 04:38 279 1 gusting 1 25.0
2020-Aug-06 04:33 281 25.0
2020-Aug-06 04:28 271 0 gusting 1 25.0
2020-Aug-06 04:18 274 0 gusting 2 25.0
2020-Aug-06 04:08 285 1 gusting 2 25.0
2020-Aug-06 03:59 289 0 gusting 1 25.0
2020-Aug-06 03:54 292 1 gusting 2 25.0
2020-Aug-06 03:44 302 2 gusting 2 25.6
2020-Aug-06 03:33 302 2 gusting 5 25.6
2020-Aug-06 03:23 302 4 gusting 5 25.6
2020-Aug-06 03:13 299 4 gusting 6 26.1
2020-Aug-06 03:03 303 5 gusting 6 26.1
2020-Aug-06 02:54 312 4 gusting 5 26.1
2020-Aug-06 02:44 303 3 gusting 4 26.1
2020-Aug-06 02:33 306 4 gusting 6 26.1
2020-Aug-06 02:23 309 3 gusting 5 26.7
2020-Aug-06 02:13 307 2 gusting 4 26.7
2020-Aug-06 02:04 311 4 gusting 6 26.7
2020-Aug-06 01:54 314 6 gusting 9 26.7
2020-Aug-06 01:43 321 6 gusting 9 26.7
2020-Aug-06 01:33 321 6 gusting 9 27.2
2020-Aug-06 01:28 311 6 gusting 9 27.2
2020-Aug-06 01:19 312 7 gusting 9 27.2
2020-Aug-06 01:09 313 6 gusting 11 27.2
2020-Aug-06 01:03 314 6 gusting 11 27.2
2020-Aug-06 00:53 306 6 gusting 11 27.2
2020-Aug-06 00:43 308 6 gusting 9 27.2
2020-Aug-06 00:34 302 5 gusting 12 27.2
2020-Aug-06 00:28 288 7 gusting 15 27.8
2020-Aug-06 00:18 291 8 gusting 13 27.8
2020-Aug-06 00:08 306 7 gusting 10 27.8
2020-Aug-05 23:59 303 6 gusting 11 27.8
2020-Aug-05 23:48 289 7 gusting 19 28.3
2020-Aug-05 23:38 278 10 gusting 14 28.3
2020-Aug-05 23:28 300 10 gusting 14 28.3
2020-Aug-05 23:18 303 11 gusting 15 28.3
2020-Aug-05 23:08 291 9 gusting 15 28.9
2020-Aug-05 22:58 293 10 gusting 19 28.9
2020-Aug-05 22:48 290 12 gusting 17 28.9
2020-Aug-05 22:38 287 13 gusting 18 28.9
2020-Aug-05 22:28 282 10 gusting 17 29.4
2020-Aug-05 22:19 281 9 gusting 17 29.4
2020-Aug-05 22:09 288 13 gusting 17 29.4
2020-Aug-05 22:03 278 7 gusting 14 29.4
2020-Aug-05 21:53 280 11 gusting 19 29.4
2020-Aug-05 21:43 314 10 gusting 18 28.9
2020-Aug-05 21:33 274 12 gusting 15 29.4
2020-Aug-05 21:28 283 6 gusting 11 29.4
2020-Aug-05 21:18 290 10 gusting 15 28.9
2020-Aug-05 21:08 265 8 gusting 16 29.4
2020-Aug-05 20:59 273 6 gusting 13 29.4
2020-Aug-05 20:48 282 11 gusting 17 29.4
2020-Aug-05 20:38 272 8 gusting 13 29.4
2020-Aug-05 20:28 280 8 gusting 16 29.4
2020-Aug-05 20:18 289 8 gusting 14 29.4
2020-Aug-05 20:09 288 6 gusting 14 29.4
2020-Aug-05 19:58 289 10 gusting 14 29.4
2020-Aug-05 19:53 280 9 gusting 16 29.4
2020-Aug-05 19:43 295 8 gusting 16 29.4
2020-Aug-05 19:33 309 6 gusting 11 29.4
2020-Aug-05 19:23 241 6 gusting 12 29.4
2020-Aug-05 19:14 262 8 gusting 16 28.9
2020-Aug-05 19:09 287 12 gusting 16 28.9
2020-Aug-05 18:59 240 3 gusting 13 29.4
2020-Aug-05 18:53 268 9 gusting 15 29.4
2020-Aug-05 18:43 269 9 gusting 16 28.9
2020-Aug-05 18:33 283 6 gusting 15 28.9
2020-Aug-05 18:24 265 14 gusting 17 28.9
2020-Aug-05 18:19 285 11 gusting 17 28.9
2020-Aug-05 18:08 294 4 gusting 7 28.9